Time;durP1;ratioP1;P1;durP2;ratioP2;P2;SDS_P1;SDS_P2;PMS_P1;PMS_P2;Temp;Humidity;BMP_temperature;BMP_pressure;BME280_temperature;BME280_humidity;BME280_pressure;Samples;Min_cycle;Max_cycle;Signal;HPM_P1;HPM_P2
2023/11/01 00:01:55;;;;;;;3.70;3.10;;;;;;;8.80;100.00;97413.38;1223405;75;2943472;-69
2023/11/01 00:04:28;;;;;;;3.90;3.50;;;;;;;8.61;100.00;97421.72;1224282;75;2922894;-72
2023/11/01 00:07:01;;;;;;;3.95;3.55;;;;;;;8.71;100.00;97419.69;1224495;75;2933421;-70
2023/11/01 00:09:36;;;;;;;4.00;3.50;;;;;;;8.41;100.00;97414.16;1225504;75;2922505;-70
2023/11/01 00:12:09;;;;;;;3.35;3.05;;;;;;;8.59;100.00;97413.25;1225039;75;2936775;-71
2023/11/01 00:14:42;;;;;;;3.50;3.20;;;;;;;8.56;100.00;97411.44;1226151;75;2914376;-69
2023/11/01 00:17:14;;;;;;;2.75;2.40;;;;;;;8.44;100.00;97415.19;1225828;75;2924133;-69
2023/11/01 00:19:47;;;;;;;3.80;3.30;;;;;;;8.40;100.00;97411.91;1210056;75;4011079;-68
2023/11/01 00:22:20;;;;;;;3.45;3.15;;;;;;;8.37;100.00;97413.56;1225651;75;2923274;-68
2023/11/01 00:24:55;;;;;;;3.75;3.40;;;;;;;8.17;100.00;97413.41;1225952;75;2923880;-68
2023/11/01 00:27:30;;;;;;;5.15;4.50;;;;;;;8.21;100.00;97414.72;1225260;75;2919975;-73
2023/11/01 00:30:04;;;;;;;5.90;4.50;;;;;;;8.01;100.00;97422.72;1223206;75;3058644;-69
2023/11/01 00:32:39;;;;;;;5.20;4.70;;;;;;;8.08;100.00;97423.16;1225780;67;2914920;-68
2023/11/01 00:35:12;;;;;;;5.70;5.10;;;;;;;8.00;100.00;97419.25;1226045;75;2912874;-71
2023/11/01 00:37:44;;;;;;;4.10;3.70;;;;;;;8.14;100.00;97425.25;1225410;75;2925370;-69
2023/11/01 00:40:20;;;;;;;4.05;3.65;;;;;;;8.15;100.00;97441.13;1225382;75;2918588;-69
2023/11/01 00:42:53;;;;;;;4.75;4.30;;;;;;;7.82;100.00;97447.38;1225077;75;2918716;-69
2023/11/01 00:45:26;;;;;;;3.25;2.95;;;;;;;7.97;100.00;97457.59;1212981;75;3849050;-70
2023/11/01 00:47:58;;;;;;;5.20;4.70;;;;;;;7.75;100.00;97455.88;1224199;75;2928422;-70
2023/11/01 00:50:31;;;;;;;4.55;4.15;;;;;;;7.87;100.00;97460.38;1224098;75;2932200;-71
2023/11/01 00:53:04;;;;;;;4.65;4.25;;;;;;;7.83;100.00;97454.31;1225541;75;2919522;-70
2023/11/01 00:55:39;;;;;;;4.20;3.80;;;;;;;7.83;100.00;97448.13;1225895;75;2920915;-70
2023/11/01 00:58:12;;;;;;;3.60;3.30;;;;;;;7.76;100.00;97451.19;1225683;75;2918565;-69
2023/11/01 01:00:44;;;;;;;4.05;3.65;;;;;;;7.69;100.00;97452.28;1225963;75;2921182;-70
2023/11/01 01:03:17;;;;;;;5.15;4.65;;;;;;;7.33;100.00;97450.44;1224982;75;2916981;-68
2023/11/01 01:05:50;;;;;;;4.45;4.00;;;;;;;7.57;100.00;97450.50;1225032;75;2922219;-69
2023/11/01 01:08:22;;;;;;;11.20;3.90;;;;;;;7.50;100.00;97456.28;1225295;75;2919067;-70
2023/11/01 01:10:58;;;;;;;3.75;3.45;;;;;;;7.55;100.00;97461.88;1224828;75;2914866;-71
2023/11/01 01:13:30;;;;;;;3.35;3.05;;;;;;;7.51;100.00;97464.00;1225629;75;2920425;-67
2023/11/01 01:16:03;;;;;;;5.15;4.65;;;;;;;7.13;100.00;97465.31;1225038;75;2920052;-69
2023/11/01 01:18:35;;;;;;;4.40;4.00;;;;;;;7.42;100.00;97467.50;1225450;75;2918715;-72
2023/11/01 01:21:08;;;;;;;4.70;4.30;;;;;;;7.20;100.00;97461.53;1225010;75;2939009;-67
2023/11/01 01:23:41;;;;;;;4.30;3.90;;;;;;;7.20;100.00;97459.56;1226481;75;2926534;-71
2023/11/01 01:26:17;;;;;;;4.75;4.35;;;;;;;7.20;100.00;97451.38;1225998;75;2918425;-70
2023/11/01 01:28:49;;;;;;;4.70;4.25;;;;;;;7.20;100.00;97454.09;1223855;75;2921142;-73
2023/11/01 01:31:22;;;;;;;4.85;3.90;;;;;;;7.27;100.00;97461.19;1225661;75;2919464;-71
2023/11/01 01:33:54;;;;;;;4.40;4.00;;;;;;;7.34;100.00;97457.41;1225305;75;2924841;-70
2023/11/01 01:36:27;;;;;;;3.60;3.30;;;;;;;7.22;100.00;97456.38;1225860;75;2895443;-68
2023/11/01 01:39:00;;;;;;;3.95;3.60;;;;;;;7.29;100.00;97458.00;1225814;75;2927772;-69
2023/11/01 01:41:35;;;;;;;4.65;4.25;;;;;;;7.05;100.00;97455.97;1224114;75;2920679;-68
2023/11/01 01:44:08;;;;;;;5.10;4.60;;;;;;;6.83;100.00;97451.47;1086744;75;12010573;-70
2023/11/01 01:46:41;;;;;;;5.40;4.90;;;;;;;6.72;100.00;97451.16;1225900;75;2916161;-67
2023/11/01 01:49:15;;;;;;;4.45;4.05;;;;;;;6.98;100.00;97448.88;1223994;75;2920937;-70
2023/11/01 01:51:47;;;;;;;4.30;3.90;;;;;;;6.87;100.00;97447.81;1222250;75;3021952;-68
2023/11/01 01:54:20;;;;;;;4.00;3.70;;;;;;;6.96;100.00;97454.00;1223532;75;2932181;-70
2023/11/01 01:56:56;;;;;;;8.00;7.20;;;;;;;6.57;100.00;97464.59;1223647;75;2988421;-70
2023/11/01 01:59:29;;;;;;;10.65;9.65;;;;;;;6.54;100.00;97460.09;1221765;75;3083701;-67
2023/11/01 02:02:02;;;;;;;7.85;7.15;;;;;;;6.69;100.00;97459.47;1224679;75;2921851;-71
2023/11/01 02:04:35;;;;;;;6.85;6.15;;;;;;;6.86;100.00;97451.75;1224382;75;2917151;-69
2023/11/01 02:07:09;;;;;;;6.35;5.75;;;;;;;6.75;100.00;97458.41;1223556;75;2927196;-70
2023/11/01 02:09:42;;;;;;;5.45;4.95;;;;;;;6.77;100.00;97457.94;1222847;75;2954573;-67
2023/11/01 02:12:17;;;;;;;9.40;8.50;;;;;;;6.48;100.00;97456.44;1222106;75;2940869;-68
2023/11/01 02:14:50;;;;;;;6.95;6.35;;;;;;;6.81;100.00;97448.44;1224783;75;2938142;-68
2023/11/01 02:17:23;;;;;;;6.15;4.85;;;;;;;6.89;100.00;97457.03;1222153;75;3044309;-70
2023/11/01 02:19:56;;;;;;;5.25;4.40;;;;;;;6.91;100.00;97460.06;1224633;75;2921010;-73
2023/11/01 02:22:28;;;;;;;3.65;3.35;;;;;;;6.88;100.00;97449.31;1225311;75;2923011;-69
2023/11/01 02:25:04;;;;;;;3.25;2.95;;;;;;;6.87;100.00;97447.81;1225597;75;2922663;-70
2023/11/01 02:27:37;;;;;;;3.50;2.80;;;;;;;6.83;100.00;97450.69;1212966;75;3837600;-69
2023/11/01 02:30:16;;;;;;;2.85;2.65;;;;;;;6.67;100.00;97459.19;1224613;75;2920913;-68
2023/11/01 02:32:49;;;;;;;3.30;3.00;;;;;;;6.60;100.00;97455.53;1224902;75;2925369;-67
2023/11/01 02:35:22;;;;;;;2.45;2.25;;;;;;;6.83;100.00;97456.91;1225285;75;2920953;-69
2023/11/01 02:37:54;;;;;;;4.25;2.60;;;;;;;6.66;100.00;97455.69;1225281;75;2917638;-70
2023/11/01 02:40:30;;;;;;;2.80;2.60;;;;;;;6.56;100.00;97462.34;1224801;75;2926187;-69
2023/11/01 02:43:03;;;;;;;2.85;2.65;;;;;;;6.42;100.00;97458.25;1224926;75;2926832;-70
2023/11/01 02:45:36;;;;;;;5.60;5.05;;;;;;;5.96;100.00;97467.09;1224714;75;2920232;-70
2023/11/01 02:48:09;;;;;;;4.70;4.30;;;;;;;6.32;100.00;97460.19;1224762;75;2921651;-69
2023/11/01 02:50:42;;;;;;;3.55;3.25;;;;;;;6.31;100.00;97458.69;1224932;75;2925679;-72
2023/11/01 02:53:14;;;;;;;5.25;4.75;;;;;;;6.04;100.00;97464.06;1225133;75;2927020;-70
2023/11/01 02:55:50;;;;;;;4.90;4.50;;;;;;;5.89;100.00;97458.44;1211952;75;3858531;-70
2023/11/01 02:58:23;;;;;;;4.90;4.40;;;;;;;6.04;100.00;97458.63;1223435;75;2991321;-70
2023/11/01 03:00:56;;;;;;;3.80;3.50;;;;;;;5.95;100.00;97462.84;1224841;75;2918888;-70
2023/11/01 03:03:29;;;;;;;5.35;3.70;;;;;;;5.74;100.00;97485.41;1225077;75;2925580;-69
2023/11/01 03:06:01;;;;;;;4.95;4.50;;;;;;;5.61;100.00;97482.78;1212529;75;3881188;-68
2023/11/01 03:08:34;;;;;;;4.80;4.25;;;;;;;5.72;100.00;97493.22;1224504;75;2921066;-68
2023/11/01 03:11:10;;;;;;;3.75;3.45;;;;;;;5.95;100.00;97492.00;1222806;75;2929116;-71
2023/11/01 03:13:42;;;;;;;4.40;4.00;;;;;;;5.82;100.00;97491.31;1224842;75;2929186;-68
2023/11/01 03:16:15;;;;;;;3.85;3.55;;;;;;;6.00;100.00;97507.72;1225190;75;2922834;-71
2023/11/01 03:18:47;;;;;;;6.40;5.80;;;;;;;5.44;100.00;97528.41;1212836;75;3789746;-71
2023/11/01 03:21:20;;;;;;;6.60;5.90;;;;;;;5.63;100.00;97523.84;1224930;75;2923729;-70
2023/11/01 03:23:53;;;;;;;9.95;6.75;;;;;;;5.63;100.00;97520.34;1224993;75;2923287;-74
2023/11/01 03:26:28;;;;;;;5.55;4.95;;;;;;;5.92;100.00;97520.03;1206330;75;4101424;-71
2023/11/01 03:29:00;;;;;;;6.05;4.90;;;;;;;5.81;100.00;97508.81;1222588;75;3026223;-74
2023/11/01 03:31:33;;;;;;;5.05;3.80;;;;;;;5.96;100.00;97499.72;1225569;75;2918789;-72
2023/11/01 03:34:06;;;;;;;3.90;3.00;;;;;;;6.14;100.00;97485.41;1224574;75;2922699;-69
2023/11/01 03:36:38;;;;;;;5.85;2.70;;;;;;;6.15;100.00;97478.75;1224867;75;2919477;-70
2023/11/01 03:39:12;;;;;;;12.30;4.15;;;;;;;5.85;100.00;97487.72;1225972;75;2920131;-70
2023/11/01 03:41:48;;;;;;;9.75;4.35;;;;;;;5.58;100.00;97494.56;1221465;75;3107144;-68
2023/11/01 03:44:20;;;;;;;11.60;5.75;;;;;;;5.66;100.00;97489.59;1225753;75;2920795;-70
2023/11/01 03:46:53;;;;;;;4.90;4.35;;;;;;;5.95;100.00;97492.00;1210383;75;4071668;-72
2023/11/01 03:49:29;;;;;;;3.40;3.10;;;;;;;6.13;100.00;97485.84;1225773;75;2919871;-69
2023/11/01 03:52:03;;;;;;;15.60;3.90;;;;;;;5.95;100.00;97492.00;1211233;75;3794487;-71
2023/11/01 03:54:36;;;;;;;7.30;4.15;;;;;;;5.90;100.00;97487.88;1225525;75;2926522;-69
2023/11/01 03:57:11;;;;;;;4.75;4.25;;;;;;;5.78;100.00;97496.13;1223369;75;2915656;-71
2023/11/01 03:59:44;;;;;;;4.55;4.15;;;;;;;5.88;100.00;97493.00;1224598;75;2918314;-70
2023/11/01 04:02:17;;;;;;;4.30;3.70;;;;;;;6.13;100.00;97494.00;1203804;75;4518762;-71
2023/11/01 04:04:49;;;;;;;6.15;3.85;;;;;;;5.87;100.00;97496.94;1224716;75;2921226;-70
2023/11/01 04:07:22;;;;;;;6.45;4.00;;;;;;;5.91;100.00;97502.22;1224762;75;2922776;-72
2023/11/01 04:09:54;;;;;;;8.85;4.90;;;;;;;5.89;100.00;97494.53;1225723;75;2928320;-71
2023/11/01 04:12:30;;;;;;;4.20;3.80;;;;;;;6.06;100.00;97491.56;1221136;75;3087621;-67
2023/11/01 04:15:05;;;;;;;5.60;5.10;;;;;;;5.93;100.00;97491.66;1222255;75;3075348;-71
2023/11/01 04:17:37;;;;;;;5.00;4.50;;;;;;;5.98;100.00;97491.84;1225001;75;2924870;-69
2023/11/01 04:20:12;;;;;;;4.20;3.80;;;;;;;6.23;100.00;97492.81;1222881;75;2973326;-66
2023/11/01 04:22:45;;;;;;;3.50;3.20;;;;;;;6.46;100.00;97507.06;1225117;75;2934298;-71
2023/11/01 04:25:17;;;;;;;6.40;5.70;;;;;;;5.94;100.00;97501.34;1224294;75;2919271;-67
2023/11/01 04:27:53;;;;;;;7.35;5.80;;;;;;;5.79;100.00;97506.53;1219572;75;3104025;-69
2023/11/01 04:30:26;;;;;;;5.30;4.80;;;;;;;6.09;100.00;97509.69;1222785;75;2942864;-69
2023/11/01 04:32:59;;;;;;;3.80;3.45;;;;;;;6.34;100.00;97511.41;1222591;75;2995937;-70
2023/11/01 04:35:32;;;;;;;5.95;5.35;;;;;;;5.72;100.00;97514.97;1225563;75;2921768;-69
2023/11/01 04:38:05;;;;;;;4.90;4.50;;;;;;;5.80;100.00;97515.44;1225514;75;2923319;-72
2023/11/01 04:40:37;;;;;;;4.50;4.10;;;;;;;5.63;100.00;97515.69;1224457;75;2931666;-69
2023/11/01 04:43:12;;;;;;;4.45;4.05;;;;;;;5.87;100.00;97509.72;1224947;75;2916111;-69
2023/11/01 04:45:45;;;;;;;4.95;4.55;;;;;;;5.50;100.00;97513.03;1225015;75;2930127;-69
2023/11/01 04:48:18;;;;;;;4.45;4.05;;;;;;;5.32;100.00;97510.25;1222308;75;2959805;-72
2023/11/01 04:50:50;;;;;;;3.60;3.30;;;;;;;5.58;100.00;97499.97;1221506;75;2963991;-72
2023/11/01 04:53:23;;;;;;;3.30;3.00;;;;;;;5.86;100.00;97510.94;1224151;75;2918272;-73
2023/11/01 04:55:56;;;;;;;2.80;1.90;;;;;;;6.10;100.00;97505.78;1224560;75;2909350;-68
2023/11/01 04:58:31;;;;;;;3.15;2.85;;;;;;;5.55;100.00;97504.31;1224825;75;2922811;-70
2023/11/01 05:01:04;;;;;;;3.25;2.95;;;;;;;5.59;100.00;97509.63;1224870;75;2919064;-69
2023/11/01 05:03:39;;;;;;;3.45;3.15;;;;;;;5.71;100.00;97516.19;1223902;75;2922535;-67
2023/11/01 05:06:12;;;;;;;4.00;3.60;;;;;;;5.51;100.00;97520.00;1224646;75;2920626;-68
2023/11/01 05:08:45;;;;;;;4.55;4.15;;;;;;;5.66;100.00;97520.22;1224462;75;2929057;-71
2023/11/01 05:11:18;;;;;;;3.25;2.95;;;;;;;5.85;100.00;97517.59;1224879;75;2924936;-70
2023/11/01 05:13:53;;;;;;;2.70;2.50;;;;;;;5.98;100.00;97515.53;1211482;75;3964507;-70
2023/11/01 05:16:26;;;;;;;4.55;2.65;;;;;;;5.78;100.00;97515.91;1224679;75;2925794;-70
2023/11/01 05:18:58;;;;;;;3.50;3.20;;;;;;;5.78;100.00;97524.06;1224648;75;2929488;-74
2023/11/01 05:21:31;;;;;;;7.65;5.40;;;;;;;5.49;100.00;97522.41;1225278;75;2917862;-72
2023/11/01 05:24:04;;;;;;;5.75;5.15;;;;;;;5.54;100.00;97526.50;1225191;75;2934487;-69
2023/11/01 05:26:37;;;;;;;4.50;4.10;;;;;;;5.84;100.00;97522.25;1224812;75;2928739;-71
2023/11/01 05:29:12;;;;;;;3.80;3.50;;;;;;;6.07;100.00;97529.16;1225704;75;2921667;-69
2023/11/01 05:31:45;;;;;;;4.00;3.60;;;;;;;6.03;100.00;97531.25;1224478;75;2919084;-70
2023/11/01 05:34:18;;;;;;;4.70;4.30;;;;;;;5.89;100.00;97531.78;1225608;75;2917350;-71
2023/11/01 05:36:52;;;;;;;9.50;4.25;;;;;;;5.63;100.00;97523.06;1225148;75;2922872;-70
2023/11/01 05:39:25;;;;;;;5.45;4.70;;;;;;;5.32;100.00;97521.84;1226094;75;2895010;-69
2023/11/01 05:41:57;;;;;;;8.20;4.75;;;;;;;5.38;100.00;97516.59;1225304;75;2923257;-71
2023/11/01 05:44:33;;;;;;;7.45;3.95;;;;;;;5.76;100.00;97507.44;1223533;75;2924567;-72
2023/11/01 05:47:06;;;;;;;3.50;3.20;;;;;;;5.93;100.00;97514.13;1224852;75;2916669;-72
2023/11/01 05:49:39;;;;;;;6.00;3.20;;;;;;;5.49;100.00;97516.22;1210574;75;4030352;-69
2023/11/01 05:52:12;;;;;;;4.70;4.30;;;;;;;5.23;100.00;97515.63;1225670;75;2918729;-67
2023/11/01 05:54:44;;;;;;;4.45;4.05;;;;;;;5.04;100.00;97517.44;1224748;75;2916642;-71
2023/11/01 05:57:17;;;;;;;3.85;3.55;;;;;;;5.31;100.00;97514.91;1224837;75;2917985;-69
2023/11/01 05:59:53;;;;;;;5.25;2.75;;;;;;;5.72;100.00;97504.09;1223689;75;2921862;-67
2023/11/01 06:02:26;;;;;;;2.55;2.35;;;;;;;5.94;100.00;97510.25;1223962;75;2930394;-67
2023/11/01 06:04:58;;;;;;;2.85;2.00;;;;;;;5.92;100.00;97507.22;1190620;75;5533214;-69
2023/11/01 06:07:31;;;;;;;1.95;1.80;;;;;;;6.08;100.00;97511.66;1225025;75;2906550;-71
2023/11/01 06:10:03;;;;;;;1.65;1.55;;;;;;;6.03;100.00;97503.34;1224884;75;2916567;-71
2023/11/01 06:12:36;;;;;;;1.70;1.60;;;;;;;6.15;100.00;97500.50;1223357;75;2932864;-67
2023/11/01 06:15:14;;;;;;;1.30;1.20;;;;;;;6.13;100.00;97497.50;1224026;75;2921297;-68
2023/11/01 06:17:47;;;;;;;1.90;1.70;;;;;;;6.06;100.00;97497.78;1224936;75;2921843;-72
2023/11/01 06:20:20;;;;;;;1.75;1.65;;;;;;;6.16;100.00;97499.31;1224804;75;2923740;-69
2023/11/01 06:22:53;;;;;;;1.95;1.80;;;;;;;6.17;100.00;97503.53;1224932;75;2922598;-66
2023/11/01 06:25:25;;;;;;;2.00;1.80;;;;;;;6.46;100.00;97502.38;1224336;75;2918269;-70
2023/11/01 06:27:58;;;;;;;2.10;1.90;;;;;;;6.76;100.00;97502.72;1222947;75;3024540;-72
2023/11/01 06:30:33;;;;;;;1.90;1.70;;;;;;;6.96;100.00;97500.25;1225355;75;2918795;-68
2023/11/01 06:33:06;;;;;;;2.15;1.90;;;;;;;6.69;100.00;97513.88;1222127;75;3061594;-67
2023/11/01 06:35:39;;;;;;;2.45;2.25;;;;;;;6.31;100.00;97510.34;1224356;75;2940034;-70
2023/11/01 06:38:12;;;;;;;2.80;2.40;;;;;;;6.23;100.00;97517.28;1225178;75;2919742;-70
2023/11/01 06:40:45;;;;;;;3.00;2.55;;;;;;;6.43;100.00;97514.16;1222662;75;3008401;-68
2023/11/01 06:43:17;;;;;;;3.35;3.05;;;;;;;6.26;100.00;97518.34;1224277;75;2922019;-71
2023/11/01 06:45:53;;;;;;;9.85;6.25;;;;;;;5.85;100.00;97518.34;1223218;75;2998616;-70
2023/11/01 06:48:25;;;;;;;6.60;4.95;;;;;;;5.91;100.00;97507.66;1225260;75;2929057;-68
2023/11/01 06:50:58;;;;;;;4.35;3.95;;;;;;;6.17;100.00;97508.19;1223065;75;2928486;-69
2023/11/01 06:53:30;;;;;;;4.20;3.80;;;;;;;6.55;100.00;97513.25;1223135;75;3060714;-70
2023/11/01 06:56:03;;;;;;;4.65;4.25;;;;;;;6.10;100.00;97516.66;1224433;75;2918580;-68
2023/11/01 06:58:36;;;;;;;5.25;4.40;;;;;;;6.43;100.00;97516.88;1221339;75;3044737;-69
2023/11/01 07:01:12;;;;;;;9.80;8.10;;;;;;;6.57;100.00;97515.53;1223935;75;2944012;-68
2023/11/01 07:03:44;;;;;;;8.00;7.20;;;;;;;6.49;100.00;97512.34;1223431;75;2931327;-71
2023/11/01 07:06:17;;;;;;;6.75;6.00;;;;;;;6.90;100.00;97509.47;1197371;75;4878446;-71
2023/11/01 07:08:50;;;;;;;4.10;3.70;;;;;;;7.10;100.00;97514.47;1222240;75;3025280;-70
2023/11/01 07:11:24;;;;;;;5.80;5.20;;;;;;;7.16;100.00;97510.66;1221601;75;2932003;-68
2023/11/01 07:13:56;;;;;;;11.05;9.10;;;;;;;6.61;100.00;97522.34;1223257;75;2939191;-67
2023/11/01 07:16:32;;;;;;;8.05;6.90;;;;;;;6.31;100.00;97517.75;1222820;75;2927396;-73
2023/11/01 07:19:04;;;;;;;7.80;7.00;;;;;;;6.27;100.00;97528.00;1221582;75;2941430;-70
2023/11/01 07:21:39;;;;;;;7.00;6.30;;;;;;;6.26;100.00;97519.09;1223660;75;2935240;-72
2023/11/01 07:24:13;;;;;;;6.15;5.30;;;;;;;6.11;100.00;97515.44;1224085;75;2931943;-72
2023/11/01 07:26:46;;;;;;;5.10;4.65;;;;;;;6.57;100.00;97520.97;1221087;83;2958496;-70
2023/11/01 07:29:18;;;;;;;5.70;5.20;;;;;;;6.56;100.00;97522.16;1223101;75;2930606;-71
2023/11/01 07:31:54;;;;;;;5.90;5.40;;;;;;;6.86;100.00;97515.09;1223654;75;2934513;-67
2023/11/01 07:34:26;;;;;;;5.35;4.85;;;;;;;7.83;100.00;97514.28;1222710;75;2931139;-68
2023/11/01 07:36:59;;;;;;;5.80;5.20;;;;;;;7.47;100.00;97515.16;1222479;75;2929452;-68
2023/11/01 07:39:32;;;;;;;6.30;5.50;;;;;;;7.45;100.00;97503.97;1223100;75;2928548;-67
2023/11/01 07:42:04;;;;;;;6.05;5.55;;;;;;;7.47;100.00;97505.00;1223255;75;2928087;-72
2023/11/01 07:44:38;;;;;;;5.85;5.25;;;;;;;7.53;100.00;97507.88;1223598;75;2926265;-70
2023/11/01 07:47:13;;;;;;;5.80;5.25;;;;;;;7.77;100.00;97507.97;1223133;75;2923883;-67
2023/11/01 07:49:46;;;;;;;5.10;4.55;;;;;;;7.44;100.00;97507.91;1197301;75;4978517;-69
2023/11/01 07:52:18;;;;;;;5.15;4.70;;;;;;;7.35;100.00;97508.66;1221648;75;2965360;-72
2023/11/01 07:54:51;;;;;;;5.65;5.05;;;;;;;7.57;100.00;97524.81;1224195;75;2933012;-68
2023/11/01 07:57:25;;;;;;;5.55;5.05;;;;;;;9.63;100.00;97508.88;1223757;75;2932160;-67
2023/11/01 07:59:57;;;;;;;3.75;3.40;;;;;;;12.23;100.00;97502.25;1220836;75;3046797;-70
2023/11/01 08:02:34;;;;;;;4.55;4.00;;;;;;;10.57;100.00;97516.19;1221713;75;2924864;-70
2023/11/01 08:05:07;;;;;;;4.35;3.95;;;;;;;10.02;100.00;97511.44;1223384;75;2932197;-70
2023/11/01 08:07:40;;;;;;;4.00;3.60;;;;;;;10.17;100.00;97509.44;1223986;75;2932151;-72
2023/11/01 08:10:13;;;;;;;3.95;3.60;;;;;;;9.83;100.00;97513.66;1224026;75;2926598;-71
2023/11/01 08:12:46;;;;;;;3.35;3.05;;;;;;;11.26;100.00;97515.72;1223187;75;2949225;-68
2023/11/01 08:15:19;;;;;;;4.35;3.60;;;;;;;10.91;100.00;97507.63;1223758;75;2933270;-73
2023/11/01 08:17:54;;;;;;;4.00;3.60;;;;;;;11.23;100.00;97511.94;1224775;75;2928980;-68
2023/11/01 08:20:29;;;;;;;3.75;3.35;;;;;;;12.43;100.00;97506.84;1199893;75;4866258;-73
2023/11/01 08:23:02;;;;;;;2.95;2.65;;;;;;;14.18;100.00;97516.16;1224701;75;2939736;-68
2023/11/01 08:25:34;;;;;;;4.45;3.90;;;;;;;13.99;93.49;97507.66;1221969;75;3034379;-68
2023/11/01 08:28:07;;;;;;;4.75;4.05;;;;;;;14.35;85.48;97510.59;1223290;75;2925265;-69
2023/11/01 08:30:40;;;;;;;3.55;3.10;;;;;;;14.44;85.94;97504.81;1223706;75;2922878;-68
2023/11/01 08:33:15;;;;;;;7.10;5.40;;;;;;;13.69;85.88;97506.72;1225384;75;2935831;-70
2023/11/01 08:35:48;;;;;;;6.25;3.95;;;;;;;11.86;99.85;97516.72;1221860;75;3023170;-73
2023/11/01 08:38:20;;;;;;;4.00;3.05;;;;;;;11.59;100.00;97517.22;1225101;75;2927209;-69
2023/11/01 08:40:54;;;;;;;4.35;3.60;;;;;;;10.86;100.00;97526.25;1223370;75;2925233;-69
2023/11/01 08:43:27;;;;;;;4.95;3.95;;;;;;;9.90;100.00;97529.66;1223685;75;2935597;-71
2023/11/01 08:46:00;;;;;;;4.60;3.50;;;;;;;10.05;100.00;97526.91;1223973;75;2928564;-70
2023/11/01 08:48:35;;;;;;;4.60;3.90;;;;;;;9.59;100.00;97524.69;1224157;75;2937014;-68
2023/11/01 08:51:08;;;;;;;4.00;3.35;;;;;;;10.33;100.00;97521.09;1224168;75;2929829;-67
2023/11/01 08:53:41;;;;;;;4.10;3.50;;;;;;;10.29;100.00;97520.53;1219552;75;3103297;-70
2023/11/01 08:56:14;;;;;;;3.70;3.30;;;;;;;10.61;100.00;97516.75;1224675;75;2926839;-72
2023/11/01 08:58:46;;;;;;;5.55;3.75;;;;;;;10.61;100.00;97507.78;1223738;75;2935845;-69
2023/11/01 09:01:19;;;;;;;3.80;3.35;;;;;;;11.16;100.00;97512.38;1220122;75;3070008;-68
2023/11/01 09:03:54;;;;;;;8.15;5.70;;;;;;;12.36;100.00;97504.56;1224807;75;2924641;-69
2023/11/01 09:06:29;;;;;;;4.50;3.90;;;;;;;11.28;100.00;97510.47;1224204;75;2925028;-69
2023/11/01 09:09:01;;;;;;;11.25;8.65;;;;;;;11.95;100.00;97493.84;1224083;75;2929643;-68
2023/11/01 09:11:34;;;;;;;5.75;4.65;;;;;;;11.19;100.00;97500.44;1223827;75;2924601;-70
2023/11/01 09:14:07;;;;;;;4.50;2.80;;;;;;;12.94;100.00;97490.56;1224033;75;2936451;-68
2023/11/01 09:16:39;;;;;;;3.55;2.75;;;;;;;12.84;98.35;97478.28;1223999;75;2929419;-67
2023/11/01 09:19:15;;;;;;;3.75;2.70;;;;;;;14.61;92.34;97480.00;1224029;75;2948116;-70
2023/11/01 09:21:47;;;;;;;4.55;3.55;;;;;;;13.01;91.39;97476.34;1224110;75;2927859;-72
2023/11/01 09:24:20;;;;;;;4.30;3.75;;;;;;;12.82;98.55;97467.81;1220918;75;3056072;-70
2023/11/01 09:26:53;;;;;;;3.60;2.95;;;;;;;14.27;93.74;97468.31;1224820;75;2920960;-71
2023/11/01 09:29:25;;;;;;;3.05;2.75;;;;;;;15.27;82.28;97471.09;1225255;75;2918375;-69
2023/11/01 09:31:58;;;;;;;2.75;2.10;;;;;;;14.94;82.67;97461.06;1225428;75;2928183;-68
2023/11/01 09:34:33;;;;;;;2.40;2.10;;;;;;;15.86;77.74;97460.63;1222229;75;3059575;-67
2023/11/01 09:37:07;;;;;;;4.15;2.80;;;;;;;14.22;87.31;97455.34;1225420;75;2919419;-72
2023/11/01 09:39:40;;;;;;;2.95;2.40;;;;;;;15.89;78.33;97454.06;1226150;75;2919093;-70
2023/11/01 09:42:23;;;;;;;3.35;2.25;;;;;;;16.09;76.13;97452.88;1225692;75;2920353;-73
2023/11/01 09:45:03;;;;;;;2.90;2.45;;;;;;;15.84;78.14;97447.34;1224563;75;2915676;-70
2023/11/01 09:47:35;;;;;;;3.75;2.70;;;;;;;16.26;74.65;97449.91;1224741;75;2919508;-68
2023/11/01 09:50:13;;;;;;;3.10;2.80;;;;;;;15.77;78.13;97453.44;1224767;75;2911905;-70
2023/11/01 09:52:46;;;;;;;4.30;3.50;;;;;;;15.14;79.85;97452.41;1224379;75;2920478;-70
2023/11/01 09:55:19;;;;;;;3.55;2.80;;;;;;;16.16;76.79;97442.00;1225378;75;2922286;-68
2023/11/01 09:57:52;;;;;;;3.20;2.90;;;;;;;16.69;77.55;97443.63;1224541;75;2922125;-70
2023/11/01 10:00:26;;;;;;;3.70;2.90;;;;;;;16.56;76.86;97436.75;1224951;75;2923858;-70
2023/11/01 10:02:59;;;;;;;3.55;3.00;;;;;;;16.43;75.95;97442.22;1224396;75;2916691;-74
2023/11/01 10:05:34;;;;;;;3.45;2.80;;;;;;;17.25;74.84;97440.13;1225043;75;2914086;-76
2023/11/01 10:08:07;;;;;;;4.30;3.90;;;;;;;16.44;74.45;97431.91;1223926;75;2927178;-75
2023/11/01 10:10:40;;;;;;;5.75;4.55;;;;;;;16.36;74.44;97426.22;1224944;75;2921365;-73
2023/11/01 10:13:13;;;;;;;3.95;3.20;;;;;;;16.80;75.89;97416.63;1224459;75;2912697;-73
2023/11/01 10:15:45;;;;;;;3.90;3.40;;;;;;;16.59;72.95;97415.63;1223562;75;2917328;-77
2023/11/01 10:18:18;;;;;;;3.45;3.15;;;;;;;16.78;71.21;97412.84;1224576;75;2923845;-72
2023/11/01 10:20:54;;;;;;;3.65;3.25;;;;;;;16.47;72.98;97403.22;1224394;75;2915890;-76
2023/11/01 10:23:30;;;;;;;3.70;3.00;;;;;;;17.01;71.97;97400.22;1223786;75;2926859;-77
2023/11/01 10:26:03;;;;;;;3.00;2.70;;;;;;;18.05;72.52;97404.28;1225433;75;2921777;-76
2023/11/01 10:28:42;;;;;;;2.95;2.60;;;;;;;17.40;70.56;97398.84;1224537;75;2918522;-75
2023/11/01 10:31:16;;;;;;;3.20;2.60;;;;;;;17.60;70.71;97388.47;1223988;75;2931921;-74
2023/11/01 10:33:50;;;;;;;2.25;2.05;;;;;;;18.49;66.75;97386.00;1224548;75;2916864;-76
2023/11/01 10:36:25;;;;;;;2.95;2.40;;;;;;;18.91;65.08;97382.63;1224573;75;2921898;-77
2023/11/01 10:38:58;;;;;;;3.35;2.85;;;;;;;17.84;67.55;97382.75;1224718;75;2921132;-76
2023/11/01 10:41:31;;;;;;;9.20;7.90;;;;;;;18.86;66.03;97386.28;1225019;75;2917672;-76
2023/11/01 10:44:04;;;;;;;8.40;7.55;;;;;;;17.54;67.49;97376.75;1224399;75;2917470;-75
2023/11/01 10:46:37;;;;;;;23.25;14.50;;;;;;;18.23;68.01;97366.66;1224320;75;2923822;-76
2023/11/01 10:49:11;;;;;;;12.70;8.30;;;;;;;18.95;66.65;97366.38;1224925;75;2923290;-78
2023/11/01 10:51:48;;;;;;;5.20;3.85;;;;;;;18.72;63.39;97358.53;1224618;75;2918652;-76
2023/11/01 10:54:22;;;;;;;6.10;4.10;;;;;;;19.78;62.28;97362.06;1223823;75;2923934;-76
2023/11/01 10:56:55;;;;;;;3.30;2.80;;;;;;;19.20;60.49;97357.72;1224352;75;2920434;-76
2023/11/01 10:59:37;;;;;;;1.75;1.45;;;;;;;18.57;63.03;97354.84;1223841;75;2920132;-76
2023/11/01 11:02:19;;;;;;;3.15;2.40;;;;;;;18.10;65.90;97350.81;1225532;75;2915933;-74
2023/11/01 11:05:01;;;;;;;3.30;2.45;;;;;;;19.29;62.93;97346.91;1225585;75;2922424;-77
2023/11/01 11:07:48;;;;;;;2.55;1.95;;;;;;;17.94;64.17;97335.25;1225339;75;2920885;-75
2023/11/01 11:10:29;;;;;;;1.20;1.10;;;;;;;20.01;60.87;97331.63;1224166;75;2996307;-76
2023/11/01 11:13:40;;;;;;;5.15;2.70;;;;;;;19.27;61.29;97326.53;1223343;75;3029065;-74
2023/11/01 11:16:18;;;;;;;5.85;3.65;;;;;;;19.44;60.19;97317.75;1225582;75;2925026;-75
2023/11/01 11:19:01;;;;;;;2.70;1.60;;;;;;;18.74;59.14;97325.47;1225711;75;2931306;-78
2023/11/01 11:22:02;;;;;;;3.15;2.40;;;;;;;20.18;58.33;97317.28;1224431;75;2923913;-75
2023/11/01 11:24:57;;;;;;;3.20;1.80;;;;;;;19.91;57.49;97316.75;1223714;75;2916721;-78
2023/11/01 11:28:05;;;;;;;1.40;0.90;;;;;;;19.52;57.72;97308.19;1224358;75;2916742;-74
2023/11/01 11:31:12;;;;;;;0.95;0.60;;;;;;;19.36;55.45;97298.25;1223765;75;2921586;-75
2023/11/01 11:34:22;;;;;;;2.30;1.30;;;;;;;19.67;54.47;97298.47;1225364;75;2915441;-73
2023/11/01 11:37:15;;;;;;;2.25;1.40;;;;;;;18.81;56.36;97281.72;1224393;75;2916444;-74
2023/11/01 11:40:07;;;;;;;1.00;0.65;;;;;;;19.80;54.59;97284.50;1225882;75;2920900;-77
2023/11/01 11:42:55;;;;;;;7.60;3.25;;;;;;;18.81;56.20;97288.03;1226341;75;2917618;-75
2023/11/01 11:45:32;;;;;;;0.80;0.50;;;;;;;18.47;56.94;97290.81;1225175;75;2920423;-74
2023/11/01 11:48:43;;;;;;;6.85;3.40;;;;;;;18.48;59.54;97286.78;1224975;75;2917660;-75
2023/11/01 11:51:16;;;;;;;6.25;2.85;;;;;;;19.20;57.06;97280.03;1225004;75;2926526;-75